createdAt,value
2017-09-06T00:01:29.622Z,85.49
2017-09-06T00:03:56.090Z,86.87
2017-09-06T00:06:22.540Z,86.24
2017-09-06T00:08:49.735Z,85.52
2017-09-06T00:11:16.122Z,86.50
2017-09-06T00:13:42.596Z,85.29
2017-09-06T00:16:08.966Z,85.46
2017-09-06T00:18:35.303Z,85.78
2017-09-06T00:21:01.684Z,86.79
2017-09-06T00:23:28.095Z,87.36
2017-09-06T00:25:54.563Z,86.67
2017-09-06T00:28:20.995Z,87.16
2017-09-06T00:30:47.424Z,86.25
2017-09-06T00:33:13.795Z,85.98
2017-09-06T00:35:40.251Z,86.06
2017-09-06T00:38:06.642Z,85.76
2017-09-06T00:40:33.007Z,85.57
2017-09-06T00:42:59.415Z,86.57
2017-09-06T00:45:25.867Z,86.33
2017-09-06T00:47:52.295Z,85.65
2017-09-06T00:50:18.755Z,85.71
2017-09-06T00:52:45.359Z,86.24
2017-09-06T00:55:11.744Z,86.93
2017-09-06T00:57:38.174Z,86.22
2017-09-06T01:00:04.630Z,86.86
2017-09-06T01:02:31.059Z,86.26
2017-09-06T01:04:57.458Z,86.61
2017-09-06T01:07:23.903Z,86.18
2017-09-06T01:09:50.373Z,85.56
2017-09-06T01:12:16.822Z,85.46
2017-09-06T01:14:43.198Z,85.30
2017-09-06T01:17:09.699Z,86.18
2017-09-06T01:19:36.049Z,85.50
2017-09-06T01:22:02.459Z,85.73
2017-09-06T01:24:28.944Z,85.58
2017-09-06T01:26:55.554Z,86.00
2017-09-06T01:29:21.972Z,85.47
2017-09-06T01:31:48.411Z,85.64
2017-09-06T01:34:14.935Z,85.44
2017-09-06T01:36:41.411Z,85.22
2017-09-06T01:39:07.803Z,85.06
2017-09-06T01:41:34.196Z,84.77
2017-09-06T01:44:01.659Z,84.85
2017-09-06T01:46:28.058Z,84.50
2017-09-06T01:48:54.454Z,84.44
2017-09-06T01:51:20.848Z,84.67
2017-09-06T01:53:48.363Z,84.45
2017-09-06T01:56:14.736Z,84.25
2017-09-06T01:58:41.187Z,84.25
2017-09-06T02:01:07.619Z,84.34
2017-09-06T02:03:34.068Z,84.58
2017-09-06T02:06:00.495Z,84.41
2017-09-06T02:08:26.915Z,84.56
2017-09-06T02:10:53.262Z,84.48
2017-09-06T02:13:19.575Z,84.07
2017-09-06T02:15:45.916Z,84.16
2017-09-06T02:18:12.254Z,84.27
2017-09-06T02:20:38.584Z,84.33
2017-09-06T02:23:04.954Z,84.46
2017-09-06T02:25:31.374Z,84.49
2017-09-06T02:27:57.850Z,84.44
2017-09-06T02:30:24.274Z,84.57
2017-09-06T02:32:50.723Z,84.34
2017-09-06T02:35:17.126Z,84.83
2017-09-06T02:37:43.475Z,84.42
2017-09-06T02:40:09.903Z,84.91
2017-09-06T02:42:36.261Z,85.05
2017-09-06T02:45:02.730Z,85.07
2017-09-06T02:47:29.131Z,85.08
2017-09-06T02:49:55.606Z,85.15
2017-09-06T02:52:21.970Z,85.05
2017-09-06T02:54:48.358Z,84.88
2017-09-06T02:57:14.814Z,85.09
2017-09-06T02:59:41.258Z,84.81
2017-09-06T03:02:07.662Z,84.60
2017-09-06T03:04:34.002Z,84.63
2017-09-06T03:07:01.370Z,84.78
2017-09-06T03:09:27.790Z,84.99
2017-09-06T03:11:54.363Z,84.89
2017-09-06T03:14:20.774Z,84.97
2017-09-06T03:16:47.215Z,84.84
2017-09-06T03:19:13.673Z,84.83
2017-09-06T03:21:40.068Z,84.74
2017-09-06T03:24:06.623Z,84.44
2017-09-06T03:26:33.043Z,84.56
2017-09-06T03:28:59.401Z,84.24
2017-09-06T03:31:25.767Z,83.50
2017-09-06T03:33:52.211Z,83.52
2017-09-06T03:36:18.652Z,83.77
2017-09-06T03:38:45.054Z,83.64
2017-09-06T03:41:11.407Z,83.74
2017-09-06T03:43:37.832Z,83.60
2017-09-06T03:46:04.218Z,83.48
2017-09-06T03:48:30.762Z,83.34
2017-09-06T03:50:57.155Z,83.21
2017-09-06T03:53:23.590Z,83.33
2017-09-06T03:55:49.975Z,83.39
2017-09-06T03:58:17.340Z,82.85
2017-09-06T04:00:43.733Z,82.26
2017-09-06T04:03:10.160Z,81.57
2017-09-06T04:05:36.516Z,81.36
2017-09-06T04:08:02.907Z,81.26
2017-09-06T04:10:29.283Z,81.12
2017-09-06T04:12:55.618Z,81.01
2017-09-06T04:15:22.244Z,80.69
2017-09-06T04:17:48.613Z,80.29
2017-09-06T04:20:15.036Z,80.29
2017-09-06T04:22:41.381Z,80.17
2017-09-06T04:25:08.116Z,80.10
2017-09-06T04:27:34.602Z,80.86
2017-09-06T04:30:01.050Z,81.30
2017-09-06T04:32:27.640Z,82.36
2017-09-06T04:34:53.983Z,83.59
2017-09-06T04:37:20.446Z,84.29
2017-09-06T04:39:46.842Z,84.87
2017-09-06T04:42:13.280Z,84.97
2017-09-06T04:44:39.927Z,85.03
2017-09-06T04:47:06.303Z,85.14
2017-09-06T04:49:32.699Z,85.76
2017-09-06T04:51:59.035Z,86.75
2017-09-06T04:54:25.375Z,87.05
2017-09-06T04:56:51.719Z,86.91
2017-09-06T04:59:18.062Z,86.42
2017-09-06T05:01:44.418Z,86.75
2017-09-06T05:04:10.967Z,86.74
2017-09-06T05:06:37.285Z,87.58
2017-09-06T05:09:04.729Z,87.14
2017-09-06T05:11:31.077Z,87.23
2017-09-06T05:13:57.402Z,87.25
2017-09-06T05:16:23.755Z,86.90
2017-09-06T05:18:50.176Z,86.95
2017-09-06T05:21:17.431Z,86.90
2017-09-06T05:23:43.794Z,86.91
2017-09-06T05:26:10.219Z,86.96
2017-09-06T05:28:36.662Z,86.74
2017-09-06T05:31:03.123Z,86.43
2017-09-06T05:33:29.543Z,86.80
2017-09-06T05:35:55.998Z,85.95
2017-09-06T05:38:22.405Z,86.04
2017-09-06T05:40:48.780Z,85.85
2017-09-06T05:43:15.219Z,85.60
2017-09-06T05:45:41.618Z,85.84
2017-09-06T05:48:07.962Z,86.04
2017-09-06T05:50:34.346Z,86.08
2017-09-06T05:53:00.763Z,85.89
2017-09-06T05:55:27.179Z,85.93
2017-09-06T05:57:53.626Z,86.15
2017-09-06T06:00:20.070Z,85.55
2017-09-06T06:02:46.531Z,85.08
2017-09-06T06:05:13.004Z,84.11
2017-09-06T06:07:40.395Z,84.04
2017-09-06T06:10:06.750Z,83.31
2017-09-06T06:12:33.103Z,83.03
2017-09-06T06:14:59.522Z,82.54
2017-09-06T06:17:25.978Z,82.63
2017-09-06T06:19:52.398Z,82.71
2017-09-06T06:22:18.836Z,82.30
2017-09-06T06:24:45.282Z,81.78
2017-09-06T06:27:11.823Z,82.23
2017-09-06T06:29:38.271Z,81.86
2017-09-06T06:32:04.698Z,81.81
2017-09-06T06:34:30.998Z,81.13
2017-09-06T06:36:57.380Z,81.03
2017-09-06T06:39:24.043Z,81.41
2017-09-06T06:41:50.434Z,80.96
2017-09-06T06:44:16.798Z,81.55
2017-09-06T06:46:43.213Z,80.59
2017-09-06T06:49:10.607Z,79.58
2017-09-06T06:51:37.019Z,79.34
2017-09-06T06:54:03.349Z,79.26
2017-09-06T06:56:29.716Z,79.51
2017-09-06T06:58:56.114Z,79.79
2017-09-06T07:01:22.440Z,79.07
2017-09-06T07:03:48.955Z,78.95
2017-09-06T07:06:15.342Z,79.25
2017-09-06T07:08:41.819Z,78.42
2017-09-06T07:11:08.230Z,78.13
2017-09-06T07:13:36.037Z,78.38
2017-09-06T07:16:02.432Z,77.68
2017-09-06T07:18:29.054Z,77.85
2017-09-06T07:21:01.655Z,77.80
2017-09-06T07:23:29.427Z,77.74
2017-09-06T07:25:55.768Z,77.93
2017-09-06T07:28:22.279Z,76.90
2017-09-06T07:30:48.658Z,76.29
2017-09-06T07:33:15.100Z,75.75
2017-09-06T07:35:41.539Z,75.26
2017-09-06T07:38:08.875Z,75.73
2017-09-06T07:40:35.239Z,74.03
2017-09-06T07:43:01.703Z,74.65
2017-09-06T07:45:28.150Z,74.23
2017-09-06T07:47:54.560Z,74.62
2017-09-06T07:50:20.975Z,73.11
2017-09-06T07:52:47.495Z,74.55
2017-09-06T07:55:13.841Z,73.45
2017-09-06T07:57:40.219Z,73.93
2017-09-06T08:00:06.648Z,75.58
2017-09-06T08:02:33.275Z,75.79
2017-09-06T08:04:59.731Z,76.02
2017-09-06T08:09:44.242Z,77.38
2017-09-06T08:12:10.644Z,77.27
2017-09-06T08:14:36.960Z,76.53
2017-09-06T08:17:03.418Z,76.82
2017-09-06T08:19:29.885Z,76.39
2017-09-06T08:21:56.278Z,75.77
2017-09-06T08:24:22.632Z,75.62
2017-09-06T08:26:49.058Z,75.28
2017-09-06T08:29:15.438Z,76.36
2017-09-06T08:31:44.308Z,76.21
2017-09-06T08:34:10.750Z,76.69
2017-09-06T08:36:37.178Z,78.64
2017-09-06T08:39:05.096Z,79.70
2017-09-06T08:41:31.968Z,83.01
2017-09-06T08:43:58.398Z,85.04
2017-09-06T08:46:24.771Z,86.39
2017-09-06T08:48:51.093Z,87.46
2017-09-06T08:51:17.554Z,88.13
2017-09-06T08:53:44.107Z,88.06
2017-09-06T08:56:10.430Z,88.15
2017-09-06T08:58:36.760Z,86.96
2017-09-06T09:01:03.148Z,86.70
2017-09-06T09:03:29.519Z,85.25
2017-09-06T09:06:04.248Z,85.15
2017-09-06T09:08:31.425Z,84.93
2017-09-06T09:10:57.887Z,84.23
2017-09-06T09:13:24.352Z,82.11
2017-09-06T09:15:50.755Z,78.66
2017-09-06T09:18:17.083Z,78.67
2017-09-06T09:20:43.404Z,77.40
2017-09-06T09:23:09.775Z,76.91
2017-09-06T09:25:36.307Z,74.67
2017-09-06T09:28:02.749Z,75.61
2017-09-06T09:30:29.168Z,76.93
2017-09-06T09:32:55.701Z,78.09
2017-09-06T09:35:22.070Z,78.04
2017-09-06T09:37:48.433Z,79.37
2017-09-06T09:40:14.890Z,79.76
2017-09-06T09:42:41.255Z,80.03
2017-09-06T09:45:07.637Z,79.80
2017-09-06T09:47:36.664Z,80.08
2017-09-06T09:50:03.037Z,80.77
2017-09-06T09:52:29.378Z,80.82
2017-09-06T09:54:55.771Z,80.48
2017-09-06T09:57:22.149Z,78.67
2017-09-06T09:59:48.507Z,77.25
2017-09-06T10:02:15.015Z,72.50
2017-09-06T10:04:41.378Z,68.70
2017-09-06T10:07:08.720Z,68.33
2017-09-06T10:09:35.107Z,70.30
2017-09-06T10:12:01.691Z,70.46
2017-09-06T10:14:28.150Z,72.61
2017-09-06T10:16:54.629Z,72.01
2017-09-06T10:19:21.033Z,72.96
2017-09-06T10:21:47.507Z,73.07
2017-09-06T10:24:13.863Z,67.41
2017-09-06T10:26:40.178Z,63.05
2017-09-06T10:29:06.606Z,64.84
2017-09-06T10:31:33.026Z,65.79
2017-09-06T10:33:59.359Z,66.25
2017-09-06T10:36:25.839Z,60.81
2017-09-06T10:38:52.241Z,59.63
2017-09-06T10:41:20.741Z,59.43
2017-09-06T10:43:47.178Z,58.69
2017-09-06T10:46:14.558Z,52.76
2017-09-06T10:48:40.883Z,50.50
2017-09-06T10:51:07.298Z,53.05
2017-09-06T10:53:33.909Z,55.73
2017-09-06T10:56:00.293Z,55.60
2017-09-06T10:58:26.703Z,55.85
2017-09-06T11:00:53.086Z,50.78
2017-09-06T11:03:19.431Z,48.52
2017-09-06T11:05:52.658Z,50.11
2017-09-06T11:08:19.720Z,50.94
2017-09-06T11:10:46.066Z,53.77
2017-09-06T11:13:16.207Z,54.55
2017-09-06T11:15:42.622Z,49.73
2017-09-06T11:18:08.990Z,45.95
2017-09-06T11:20:35.441Z,45.99
2017-09-06T11:23:01.866Z,44.18
2017-09-06T11:25:28.307Z,44.21
2017-09-06T11:27:54.723Z,43.01
2017-09-06T11:30:21.062Z,43.67
2017-09-06T11:32:47.587Z,42.29
2017-09-06T11:35:13.935Z,42.70
2017-09-06T11:37:40.389Z,42.58
2017-09-06T11:40:06.736Z,46.13
2017-09-06T11:42:33.151Z,51.40
2017-09-06T11:44:59.598Z,54.10
2017-09-06T11:47:26.130Z,58.13
2017-09-06T11:49:52.473Z,58.84
2017-09-06T11:52:18.803Z,62.65
2017-09-06T11:54:45.147Z,61.65
2017-09-06T11:57:11.618Z,63.50
2017-09-06T11:59:38.027Z,63.05
2017-09-06T12:02:04.448Z,63.20
2017-09-06T12:04:30.867Z,63.51
2017-09-06T12:06:57.282Z,64.12
2017-09-06T12:09:23.718Z,64.76
2017-09-06T12:11:50.163Z,64.94
2017-09-06T12:14:16.493Z,65.64
2017-09-06T12:16:42.966Z,65.15
2017-09-06T12:19:10.352Z,65.56
2017-09-06T12:21:36.798Z,66.60
2017-09-06T12:24:04.156Z,67.99
2017-09-06T12:26:30.561Z,69.62
2017-09-06T12:28:56.925Z,71.32
2017-09-06T12:31:23.457Z,72.50
2017-09-06T12:33:49.792Z,75.37
2017-09-06T12:36:16.178Z,75.71
2017-09-06T12:38:42.599Z,78.04
2017-09-06T12:41:08.996Z,76.90
2017-09-06T12:43:35.398Z,78.41
2017-09-06T12:46:01.766Z,79.15
2017-09-06T12:48:28.165Z,79.96
2017-09-06T12:50:54.611Z,80.86
2017-09-06T12:53:21.204Z,82.41
2017-09-06T12:55:47.602Z,83.42
2017-09-06T12:58:14.003Z,83.04
2017-09-06T13:00:40.416Z,82.68
2017-09-06T13:03:06.771Z,80.74
2017-09-06T13:05:33.123Z,82.13
2017-09-06T13:07:59.479Z,80.68
2017-09-06T13:10:25.916Z,79.98
2017-09-06T13:12:52.326Z,80.46
2017-09-06T13:15:18.774Z,79.51
2017-09-06T13:17:45.199Z,76.34
2017-09-06T13:20:11.538Z,67.76
2017-09-06T13:22:37.959Z,65.94
2017-09-06T13:25:04.318Z,64.85
2017-09-06T13:27:30.809Z,63.21
2017-09-06T13:30:00.984Z,57.00
2017-09-06T13:32:27.318Z,56.40
2017-09-06T13:34:53.739Z,54.83
2017-09-06T13:37:20.663Z,52.96
2017-09-06T13:39:47.055Z,53.35
2017-09-06T13:42:17.832Z,52.00
2017-09-06T13:44:44.269Z,52.86
2017-09-06T13:47:10.723Z,54.40
2017-09-06T13:49:37.119Z,56.59
2017-09-06T13:52:03.551Z,56.05
2017-09-06T13:54:29.988Z,54.89
2017-09-06T13:56:56.338Z,54.56
2017-09-06T13:59:22.703Z,55.96
2017-09-06T14:01:49.103Z,58.04
2017-09-06T14:04:15.572Z,59.50
2017-09-06T14:06:41.987Z,61.18
2017-09-06T14:09:08.387Z,62.17
2017-09-06T14:11:34.747Z,64.75
2017-09-06T14:14:01.164Z,65.44
2017-09-06T14:16:27.631Z,64.86
2017-09-06T14:18:54.062Z,66.11
2017-09-06T14:21:20.394Z,66.25
2017-09-06T14:23:46.746Z,67.96
2017-09-06T14:26:13.184Z,69.39
2017-09-06T14:28:39.629Z,67.84
2017-09-06T14:31:06.087Z,67.22
2017-09-06T14:33:32.482Z,66.30
2017-09-06T14:35:58.996Z,66.53
2017-09-06T14:38:25.367Z,66.60
2017-09-06T14:40:51.798Z,65.98
2017-09-06T14:43:18.158Z,63.97
2017-09-06T14:45:44.539Z,63.19
2017-09-06T14:48:11.089Z,60.51
2017-09-06T14:50:37.468Z,59.42
2017-09-06T14:53:04.601Z,56.30
2017-09-06T14:55:30.954Z,54.66
2017-09-06T14:57:57.390Z,54.33
2017-09-06T15:00:23.828Z,52.23
2017-09-06T15:02:50.314Z,51.98
2017-09-06T15:05:16.719Z,53.26
2017-09-06T15:07:43.061Z,54.52
2017-09-06T15:10:09.490Z,52.15
2017-09-06T15:12:35.927Z,51.68
2017-09-06T15:15:02.406Z,51.82
2017-09-06T15:17:28.827Z,50.76
2017-09-06T15:19:55.275Z,50.36
2017-09-06T15:22:21.672Z,51.70
2017-09-06T15:24:48.146Z,51.05
2017-09-06T15:27:14.583Z,49.74
2017-09-06T15:29:42.031Z,50.03
2017-09-06T15:32:08.506Z,52.23
2017-09-06T15:34:34.858Z,52.03
2017-09-06T15:37:01.256Z,51.17
2017-09-06T15:39:27.675Z,50.45
2017-09-06T15:41:59.492Z,50.46
2017-09-06T15:44:25.874Z,49.16
2017-09-06T15:46:52.311Z,51.57
2017-09-06T15:49:18.768Z,53.29
2017-09-06T15:51:45.216Z,55.82
2017-09-06T15:54:11.568Z,56.61
2017-09-06T15:56:37.963Z,58.30
2017-09-06T15:59:04.424Z,59.84
2017-09-06T16:01:30.827Z,61.03
2017-09-06T16:03:57.224Z,62.08
2017-09-06T16:06:23.642Z,62.93
2017-09-06T16:08:50.100Z,64.46
2017-09-06T16:11:16.580Z,64.22
2017-09-06T16:13:42.927Z,65.01
2017-09-06T16:16:09.295Z,65.09
2017-09-06T16:18:35.762Z,65.60
2017-09-06T16:21:02.195Z,66.34
2017-09-06T16:23:34.822Z,66.13
2017-09-06T16:26:01.131Z,66.05
2017-09-06T16:28:30.227Z,66.37
2017-09-06T16:30:56.629Z,68.11
2017-09-06T16:33:23.057Z,66.18
2017-09-06T16:35:49.687Z,68.15
2017-09-06T16:38:16.431Z,67.14
2017-09-06T16:40:42.863Z,68.73
2017-09-06T16:43:09.258Z,69.11
2017-09-06T16:45:35.663Z,70.28
2017-09-06T16:48:02.112Z,73.00
2017-09-06T16:50:28.538Z,74.29
2017-09-06T16:52:54.904Z,78.71
2017-09-06T16:55:21.310Z,79.79
2017-09-06T16:57:47.751Z,78.77
2017-09-06T17:00:14.109Z,77.93
2017-09-06T17:02:40.577Z,79.88
2017-09-06T17:05:13.241Z,80.30
2017-09-06T17:07:39.639Z,78.63
2017-09-06T17:10:06.055Z,79.40
2017-09-06T17:12:32.400Z,80.51
2017-09-06T17:14:58.762Z,82.96
2017-09-06T17:17:25.188Z,83.48
2017-09-06T17:19:51.594Z,83.59
2017-09-06T17:22:17.937Z,84.29
2017-09-06T17:24:44.391Z,83.70
2017-09-06T17:27:10.787Z,85.16
2017-09-06T17:29:37.178Z,83.85
2017-09-06T17:32:03.580Z,85.21
2017-09-06T17:34:29.978Z,85.66
2017-09-06T17:36:56.422Z,86.12
2017-09-06T17:39:22.859Z,84.62
2017-09-06T17:41:49.287Z,84.24
2017-09-06T17:44:15.632Z,83.18
2017-09-06T17:46:48.404Z,82.94
2017-09-06T17:49:15.472Z,81.59
2017-09-06T17:51:41.896Z,81.51
2017-09-06T17:54:08.364Z,80.17
2017-09-06T17:56:34.810Z,78.58
2017-09-06T17:59:01.313Z,78.64
2017-09-06T18:01:27.745Z,76.90
2017-09-06T18:03:55.138Z,74.59
2017-09-06T18:06:21.538Z,73.69
2017-09-06T18:08:48.875Z,72.92
2017-09-06T18:11:15.280Z,73.10
2017-09-06T18:13:41.655Z,72.67
2017-09-06T18:16:08.082Z,72.52
2017-09-06T18:18:34.502Z,72.25
2017-09-06T18:21:01.034Z,72.10
2017-09-06T18:23:27.482Z,71.88
2017-09-06T18:25:53.925Z,73.75
2017-09-06T18:28:20.364Z,71.66
2017-09-06T18:30:46.774Z,70.82
2017-09-06T18:33:13.247Z,70.09
2017-09-06T18:35:39.791Z,69.50
2017-09-06T18:38:06.268Z,69.52
2017-09-06T18:40:32.732Z,69.21
2017-09-06T18:42:59.188Z,69.60
2017-09-06T18:45:26.791Z,69.35
2017-09-06T18:47:53.179Z,69.86
2017-09-06T18:50:19.593Z,69.92
2017-09-06T18:52:46.035Z,70.16
2017-09-06T18:55:12.867Z,70.88
2017-09-06T18:57:39.331Z,71.37
2017-09-06T19:00:05.783Z,70.99
2017-09-06T19:02:32.320Z,70.12
2017-09-06T19:04:58.739Z,69.92
2017-09-06T19:07:25.380Z,68.66
2017-09-06T19:09:58.911Z,68.55
2017-09-06T19:12:25.347Z,68.82
2017-09-06T19:14:51.766Z,68.55
2017-09-06T19:17:18.103Z,69.54
2017-09-06T19:19:44.620Z,69.61
2017-09-06T19:22:10.976Z,66.93
2017-09-06T19:24:37.340Z,65.88
2017-09-06T19:27:03.806Z,64.93
2017-09-06T19:29:33.622Z,64.96
2017-09-06T19:32:00.038Z,64.63
2017-09-06T19:34:26.483Z,63.06
2017-09-06T19:36:52.953Z,63.93
2017-09-06T19:39:19.357Z,64.43
2017-09-06T19:41:45.830Z,64.62
2017-09-06T19:44:12.358Z,64.57
2017-09-06T19:46:38.751Z,64.42
2017-09-06T19:49:05.236Z,64.89
2017-09-06T19:51:32.264Z,64.89
2017-09-06T19:53:58.682Z,64.49
2017-09-06T19:56:25.203Z,64.12
2017-09-06T19:58:51.611Z,63.32
2017-09-06T20:01:17.983Z,64.11
2017-09-06T20:03:44.485Z,63.98
2017-09-06T20:06:11.919Z,63.19
2017-09-06T20:08:38.371Z,63.52
2017-09-06T20:11:04.866Z,64.02
2017-09-06T20:13:31.368Z,64.34
2017-09-06T20:15:57.818Z,64.35
2017-09-06T20:18:25.303Z,63.94
2017-09-06T20:20:51.731Z,64.25
2017-09-06T20:23:18.143Z,64.53
2017-09-06T20:25:44.477Z,64.68
2017-09-06T20:28:10.887Z,64.91
2017-09-06T20:30:37.323Z,64.89
2017-09-06T20:33:03.744Z,64.75
2017-09-06T20:35:30.097Z,64.84
2017-09-06T20:37:56.522Z,64.82
2017-09-06T20:40:23.007Z,65.07
2017-09-06T20:42:49.415Z,65.33
2017-09-06T20:45:16.646Z,64.97
2017-09-06T20:47:43.008Z,65.11
2017-09-06T20:50:09.420Z,65.52
2017-09-06T20:52:35.831Z,65.26
2017-09-06T20:55:02.529Z,66.30
2017-09-06T20:57:29.003Z,66.51
2017-09-06T20:59:55.454Z,66.13
2017-09-06T21:02:21.834Z,65.44
2017-09-06T21:04:48.275Z,65.49
2017-09-06T21:07:14.597Z,65.50
2017-09-06T21:09:41.494Z,64.83
2017-09-06T21:12:07.869Z,64.84
2017-09-06T21:14:34.347Z,65.32
2017-09-06T21:17:00.767Z,65.65
2017-09-06T21:19:27.099Z,65.94
2017-09-06T21:21:53.475Z,65.60
2017-09-06T21:24:20.025Z,65.80
2017-09-06T21:26:46.431Z,65.61
2017-09-06T21:29:12.915Z,65.78
2017-09-06T21:31:39.446Z,66.13
2017-09-06T21:34:05.909Z,66.87
2017-09-06T21:36:32.438Z,66.56
2017-09-06T21:38:59.328Z,66.55
2017-09-06T21:41:25.843Z,66.58
2017-09-06T21:43:53.108Z,67.24
2017-09-06T21:46:19.483Z,67.30
2017-09-06T21:48:46.420Z,67.33
2017-09-06T21:51:14.224Z,67.98
2017-09-06T21:53:41.579Z,68.59
2017-09-06T21:56:08.359Z,68.11
2017-09-06T21:58:35.040Z,67.36
2017-09-06T22:01:01.990Z,67.49
2017-09-06T22:03:29.254Z,67.47
2017-09-06T22:05:55.920Z,68.21
2017-09-06T22:08:22.905Z,67.81
2017-09-06T22:10:49.327Z,68.07
2017-09-06T22:13:15.723Z,68.51
2017-09-06T22:15:43.421Z,68.16
2017-09-06T22:18:09.748Z,68.25
2017-09-06T22:20:36.179Z,68.71
2017-09-06T22:23:02.642Z,68.36
2017-09-06T22:25:29.078Z,68.37
2017-09-06T22:27:55.543Z,68.75
2017-09-06T22:30:21.935Z,68.63
2017-09-06T22:32:48.271Z,69.50
2017-09-06T22:35:16.175Z,69.86
2017-09-06T22:37:42.575Z,69.71
2017-09-06T22:40:09.026Z,69.43
2017-09-06T22:45:26.851Z,69.87
2017-09-06T22:47:53.147Z,70.09
2017-09-06T22:50:19.686Z,70.15
2017-09-06T22:52:46.115Z,69.85
2017-09-06T22:55:12.441Z,69.80
2017-09-06T22:57:38.866Z,69.63
2017-09-06T23:00:05.314Z,70.19
2017-09-06T23:02:31.743Z,70.48
2017-09-06T23:04:58.215Z,70.14
2017-09-06T23:07:24.531Z,70.36
2017-09-06T23:09:51.704Z,70.86
2017-09-06T23:12:18.118Z,72.12
2017-09-06T23:14:44.514Z,71.92
2017-09-06T23:17:10.864Z,72.09
2017-09-06T23:19:37.223Z,72.15
2017-09-06T23:22:03.663Z,73.08
2017-09-06T23:24:30.134Z,72.66
2017-09-06T23:26:56.519Z,72.84
2017-09-06T23:29:22.895Z,72.81
2017-09-06T23:31:49.303Z,72.38
2017-09-06T23:34:15.670Z,72.56
2017-09-06T23:36:42.826Z,72.24
2017-09-06T23:39:09.231Z,72.16
2017-09-06T23:41:35.557Z,72.02
2017-09-06T23:44:02.227Z,72.55
2017-09-06T23:46:28.666Z,72.44
2017-09-06T23:48:55.087Z,73.28
2017-09-06T23:51:21.686Z,73.95
2017-09-06T23:53:48.079Z,74.31
2017-09-06T23:56:14.515Z,74.59
2017-09-06T23:58:40.873Z,74.66
